Glenbeulah, Wisconsin
Current Conditions -  °F | °C
As of 5:53 AM on Sunday 25 Jan 2015 (Local Time) from KSBM Reporting Station
Overcast Overcast  
Wind Chill: 11°   Ceiling: 1900
Heat Index: 26°   Visibility: 10mi
Dew Point: 19°   Wind: 25mph
Humidity: 75%   Direction: 60°ENE
Pressure: 29.84"   Gusts: 30mph
Location:  43.8°N, 88.05°W
Report Text: KSBM 251153Z AUTO 06022G26KT 10SM OVC019 M03/M07 A2984 RMK AO2 PK WND 06026/1153 SLP114 T10331072 11028 21044 53017
Loading
Personal Weather Stations






























Interactive Weather Map New forecast layout! Learn more

10-Day Weather Forecast

Advertisements
Track Severe Weather on mobile